Time;durP1;ratioP1;P1;durP2;ratioP2;P2;SDS_P1;SDS_P2;PMS_P1;PMS_P2;Temp;Humidity;BMP_temperature;BMP_pressure;BME280_temperature;BME280_humidity;BME280_pressure;Samples;Min_cycle;Max_cycle;Signal;HPM_P1;HPM_P2
2022/10/27 00:01:59;;;;;;;;;2.75;2.75;;;;;;;;5078399;28;46113;-71
2022/10/27 00:04:25;;;;;;;;;3.25;3.25;;;;;;;;5081751;28;45301;-73
2022/10/27 00:06:50;;;;;;;;;3.00;3.00;;;;;;;;5079346;28;45278;-71
2022/10/27 00:09:15;;;;;;;;;5.25;5.00;;;;;;;;5082241;28;45374;-71
2022/10/27 00:11:40;;;;;;;;;5.75;5.75;;;;;;;;5078246;28;45432;-70
2022/10/27 00:14:06;;;;;;;;;2.75;2.75;;;;;;;;5077996;28;45292;-71
2022/10/27 00:16:31;;;;;;;;;6.00;6.00;;;;;;;;5078077;28;45435;-71
2022/10/27 00:18:56;;;;;;;;;3.25;3.25;;;;;;;;5078708;28;45422;-72
2022/10/27 00:21:21;;;;;;;;;2.75;2.75;;;;;;;;5077901;28;45491;-72
2022/10/27 00:23:49;;;;;;;;;3.75;3.75;;;;;;;;5076478;28;45895;-72
2022/10/27 00:26:15;;;;;;;;;5.00;5.00;;;;;;;;5078247;28;45318;-71
2022/10/27 00:28:40;;;;;;;;;4.75;4.75;;;;;;;;5078188;28;45596;-70
2022/10/27 00:31:16;;;;;;;;;12.25;12.25;;;;;;;;5078156;28;46194;-72
2022/10/27 00:33:42;;;;;;;;;4.25;4.25;;;;;;;;5078653;28;45382;-70
2022/10/27 00:36:09;;;;;;;;;3.25;3.25;;;;;;;;5076647;28;45336;-72
2022/10/27 00:38:34;;;;;;;;;3.00;3.00;;;;;;;;5078363;28;45507;-70
2022/10/27 00:41:00;;;;;;;;;4.00;4.00;;;;;;;;5077868;28;46023;-71
2022/10/27 00:43:26;;;;;;;;;5.00;5.00;;;;;;;;5079467;28;45436;-72
2022/10/27 00:45:51;;;;;;;;;2.00;2.00;;;;;;;;5078490;28;45408;-71
2022/10/27 00:48:16;;;;;;;;;4.00;3.00;;;;;;;;5079958;28;45459;-72
2022/10/27 00:50:42;;;;;;;;;3.75;3.75;;;;;;;;5080263;28;45469;-72
2022/10/27 00:53:08;;;;;;;;;3.00;3.00;;;;;;;;5081243;28;45417;-72
2022/10/27 00:55:35;;;;;;;;;4.00;4.00;;;;;;;;5078992;28;45240;-72
2022/10/27 00:58:02;;;;;;;;;3.50;3.50;;;;;;;;5086480;28;45410;-72
2022/10/27 01:00:27;;;;;;;;;4.50;4.50;;;;;;;;5080496;28;45358;-71
2022/10/27 01:02:53;;;;;;;;;4.50;3.00;;;;;;;;5077484;28;45262;-72
2022/10/27 01:05:25;;;;;;;;;3.50;3.50;;;;;;;;5077979;28;45336;-71
2022/10/27 01:07:54;;;;;;;;;3.75;3.75;;;;;;;;5078322;28;45580;-71
2022/10/27 01:10:20;;;;;;;;;2.50;2.50;;;;;;;;5077621;28;46158;-71
2022/10/27 01:12:45;;;;;;;;;3.00;3.00;;;;;;;;5076641;28;45378;-70
2022/10/27 01:15:11;;;;;;;;;4.00;4.00;;;;;;;;5079221;28;45260;-71
2022/10/27 01:17:41;;;;;;;;;4.00;3.75;;;;;;;;5083545;28;45533;-71
2022/10/27 01:20:15;;;;;;;;;3.25;3.25;;;;;;;;5082445;28;46562;-72
2022/10/27 01:22:43;;;;;;;;;3.25;3.00;;;;;;;;5076746;28;45262;-71
2022/10/27 01:25:27;;;;;;;;;4.00;4.00;;;;;;;;5077002;28;45315;-70
2022/10/27 01:27:58;;;;;;;;;4.00;4.00;;;;;;;;5077180;27;45302;-71
2022/10/27 01:30:23;;;;;;;;;2.50;2.50;;;;;;;;5076972;28;46701;-71
2022/10/27 01:32:51;;;;;;;;;3.75;3.75;;;;;;;;5078516;28;45422;-72
2022/10/27 01:35:20;;;;;;;;;4.25;4.25;;;;;;;;5075769;28;45333;-73
2022/10/27 01:37:47;;;;;;;;;3.50;3.50;;;;;;;;5077563;28;45561;-71
2022/10/27 01:40:16;;;;;;;;;4.00;4.00;;;;;;;;5077543;28;46382;-70
2022/10/27 01:42:48;;;;;;;;;4.00;4.00;;;;;;;;5077555;28;45322;-71
2022/10/27 01:45:14;;;;;;;;;4.25;4.25;;;;;;;;5078433;28;45367;-71
2022/10/27 01:47:40;;;;;;;;;4.00;4.00;;;;;;;;5111555;27;45533;-71
2022/10/27 01:50:06;;;;;;;;;4.00;4.00;;;;;;;;5076970;28;46292;-71
2022/10/27 01:52:43;;;;;;;;;4.00;4.00;;;;;;;;5077892;27;45258;-71
2022/10/27 01:55:11;;;;;;;;;4.00;4.00;;;;;;;;5077680;28;45257;-71
2022/10/27 01:57:51;;;;;;;;;6.00;6.00;;;;;;;;5078712;28;45359;-71
2022/10/27 02:00:17;;;;;;;;;4.00;4.00;;;;;;;;5077471;28;46287;-71
2022/10/27 02:03:11;;;;;;;;;5.25;5.25;;;;;;;;5075989;28;45366;-72
2022/10/27 02:05:49;;;;;;;;;4.00;4.00;;;;;;;;5076690;28;45238;-72
2022/10/27 02:08:17;;;;;;;;;2.75;2.75;;;;;;;;5077775;28;45366;-71
2022/10/27 02:10:47;;;;;;;;;3.00;3.00;;;;;;;;5076558;28;45415;-71
2022/10/27 02:13:13;;;;;;;;;5.00;5.00;;;;;;;;5076549;28;45304;-72
2022/10/27 02:15:41;;;;;;;;;3.25;3.25;;;;;;;;5078935;28;45362;-70
2022/10/27 02:18:17;;;;;;;;;3.25;3.25;;;;;;;;5086320;28;45601;-73
2022/10/27 02:20:45;;;;;;;;;4.75;4.25;;;;;;;;5084952;28;45601;-72
2022/10/27 02:23:14;;;;;;;;;4.00;4.00;;;;;;;;5076885;28;45380;-71
2022/10/27 02:26:00;;;;;;;;;2.50;2.50;;;;;;;;5076941;28;45401;-72
2022/10/27 02:28:28;;;;;;;;;3.00;3.00;;;;;;;;5076309;27;45664;-71
2022/10/27 02:30:56;;;;;;;;;3.25;3.25;;;;;;;;5076590;28;46155;-72
2022/10/27 02:33:21;;;;;;;;;4.00;4.00;;;;;;;;5076277;28;45245;-71
2022/10/27 02:35:46;;;;;;;;;4.25;4.25;;;;;;;;5076267;28;45181;-71
2022/10/27 02:38:12;;;;;;;;;7.00;7.00;;;;;;;;5076464;28;45168;-71
2022/10/27 02:40:37;;;;;;;;;3.50;3.50;;;;;;;;5075884;28;46393;-71
2022/10/27 02:43:03;;;;;;;;;1.25;1.25;;;;;;;;5076438;28;45207;-70
2022/10/27 02:45:28;;;;;;;;;6.00;6.00;;;;;;;;5076080;28;45410;-72
2022/10/27 02:47:53;;;;;;;;;4.00;4.00;;;;;;;;5076345;28;45311;-72
2022/10/27 02:50:18;;;;;;;;;4.75;4.75;;;;;;;;5076235;28;46439;-71
2022/10/27 02:52:43;;;;;;;;;3.75;3.75;;;;;;;;5075118;28;45302;-70
2022/10/27 02:55:09;;;;;;;;;4.00;4.00;;;;;;;;5076333;28;45320;-71
2022/10/27 02:57:34;;;;;;;;;4.25;4.25;;;;;;;;5080334;28;45563;-72
2022/10/27 02:59:59;;;;;;;;;3.75;3.75;;;;;;;;5080951;28;46303;-71
2022/10/27 03:02:24;;;;;;;;;5.25;5.25;;;;;;;;5076499;28;45330;-71
2022/10/27 03:04:50;;;;;;;;;2.75;2.75;;;;;;;;5076934;28;45382;-71
2022/10/27 03:07:15;;;;;;;;;3.00;3.00;;;;;;;;5080601;28;45608;-71
2022/10/27 03:09:40;;;;;;;;;4.00;4.00;;;;;;;;5081452;28;46316;-70
2022/10/27 03:12:05;;;;;;;;;5.50;5.50;;;;;;;;5078102;28;45259;-71
2022/10/27 03:14:31;;;;;;;;;5.50;5.50;;;;;;;;5078003;28;45360;-70
2022/10/27 03:16:56;;;;;;;;;4.00;4.00;;;;;;;;5078847;28;45538;-72
2022/10/27 03:19:21;;;;;;;;;3.50;3.50;;;;;;;;5079670;28;46361;-71
2022/10/27 03:21:46;;;;;;;;;3.25;3.25;;;;;;;;5078361;28;45410;-71
2022/10/27 03:24:11;;;;;;;;;3.00;3.00;;;;;;;;5080125;28;45309;-73
2022/10/27 03:26:38;;;;;;;;;5.00;5.00;;;;;;;;5080404;28;45277;-71
2022/10/27 03:29:03;;;;;;;;;4.00;4.00;;;;;;;;5079859;28;45913;-71
2022/10/27 03:31:28;;;;;;;;;4.25;4.25;;;;;;;;5079518;28;45984;-71
2022/10/27 03:33:53;;;;;;;;;3.00;3.00;;;;;;;;5080169;28;45341;-71
2022/10/27 03:36:19;;;;;;;;;4.00;4.00;;;;;;;;5079690;28;45583;-70
2022/10/27 03:38:44;;;;;;;;;3.25;3.25;;;;;;;;5081378;28;46154;-70
2022/10/27 03:41:09;;;;;;;;;3.75;3.75;;;;;;;;5086614;28;45299;-71
2022/10/27 03:43:34;;;;;;;;;3.75;3.75;;;;;;;;5084402;28;45350;-71
2022/10/27 03:45:59;;;;;;;;;4.50;4.50;;;;;;;;5080130;28;45830;-71
2022/10/27 03:48:25;;;;;;;;;5.00;5.00;;;;;;;;5078699;27;46698;-71
2022/10/27 03:50:50;;;;;;;;;2.50;2.50;;;;;;;;5079298;28;45296;-72
2022/10/27 03:53:15;;;;;;;;;3.75;3.75;;;;;;;;5079397;28;45276;-72
2022/10/27 03:55:41;;;;;;;;;4.00;4.00;;;;;;;;5079743;28;45371;-72
2022/10/27 03:58:08;;;;;;;;;4.00;4.00;;;;;;;;5079452;28;45393;-72
2022/10/27 04:00:34;;;;;;;;;4.00;4.00;;;;;;;;5079117;28;45418;-72
2022/10/27 04:02:59;;;;;;;;;4.50;4.50;;;;;;;;5079278;28;45464;-70
2022/10/27 04:05:24;;;;;;;;;3.25;3.25;;;;;;;;5080631;28;45605;-71
2022/10/27 04:07:50;;;;;;;;;3.00;3.00;;;;;;;;5080823;28;46295;-72
2022/10/27 04:10:15;;;;;;;;;4.50;4.25;;;;;;;;5079583;28;45272;-72
2022/10/27 04:12:51;;;;;;;;;6.00;6.00;;;;;;;;5080087;28;45313;-71
2022/10/27 04:15:17;;;;;;;;;5.25;5.25;;;;;;;;5077534;28;45446;-72
2022/10/27 04:17:42;;;;;;;;;3.00;3.00;;;;;;;;5078193;28;47024;-72
2022/10/27 04:20:07;;;;;;;;;3.00;3.00;;;;;;;;5079250;28;45313;-72
2022/10/27 04:22:33;;;;;;;;;3.25;3.25;;;;;;;;5077352;28;45307;-73
2022/10/27 04:24:58;;;;;;;;;4.00;4.00;;;;;;;;5078285;28;45330;-71
2022/10/27 04:27:23;;;;;;;;;4.75;4.75;;;;;;;;5082799;28;45515;-70
2022/10/27 04:29:48;;;;;;;;;8.00;8.00;;;;;;;;5078208;28;45350;-71
2022/10/27 04:32:13;;;;;;;;;7.00;7.00;;;;;;;;5079041;28;45305;-72
2022/10/27 04:34:39;;;;;;;;;6.00;6.00;;;;;;;;5078660;28;45502;-71
2022/10/27 04:37:04;;;;;;;;;8.00;8.00;;;;;;;;5076553;28;48488;-72
2022/10/27 04:39:29;;;;;;;;;6.75;6.75;;;;;;;;5078600;28;45360;-71
2022/10/27 04:41:55;;;;;;;;;7.75;7.75;;;;;;;;5078295;28;45220;-70
2022/10/27 04:44:20;;;;;;;;;6.00;6.00;;;;;;;;5078658;28;45199;-72
2022/10/27 04:46:45;;;;;;;;;4.75;4.75;;;;;;;;5077775;28;45322;-70
2022/10/27 04:49:10;;;;;;;;;5.00;5.00;;;;;;;;5076999;28;45306;-72
2022/10/27 04:51:36;;;;;;;;;5.00;5.00;;;;;;;;5078056;28;45224;-73
2022/10/27 04:54:01;;;;;;;;;4.00;4.00;;;;;;;;5083764;28;45160;-74
2022/10/27 04:56:27;;;;;;;;;7.25;6.75;;;;;;;;5079845;28;47201;-72
2022/10/27 04:58:53;;;;;;;;;4.00;4.00;;;;;;;;5078385;28;45179;-73
2022/10/27 05:01:18;;;;;;;;;4.25;4.25;;;;;;;;5090565;28;44689;-73
2022/10/27 05:03:45;;;;;;;;;4.25;4.25;;;;;;;;5077448;28;45564;-73
2022/10/27 05:06:10;;;;;;;;;3.50;3.50;;;;;;;;5078390;28;45415;-73
2022/10/27 05:08:36;;;;;;;;;5.25;5.25;;;;;;;;5077996;28;45305;-74
2022/10/27 05:11:01;;;;;;;;;5.25;5.25;;;;;;;;5111215;27;45317;-72
2022/10/27 05:13:26;;;;;;;;;5.00;5.00;;;;;;;;5077893;28;45399;-74
2022/10/27 05:15:51;;;;;;;;;6.00;6.00;;;;;;;;5077295;28;46220;-73
2022/10/27 05:18:17;;;;;;;;;5.00;5.00;;;;;;;;5077596;28;45469;-73
2022/10/27 05:20:42;;;;;;;;;7.75;7.75;;;;;;;;5078416;28;45322;-74
2022/10/27 05:23:07;;;;;;;;;4.75;4.75;;;;;;;;5077715;28;45456;-73
2022/10/27 05:25:33;;;;;;;;;5.50;5.50;;;;;;;;5077045;28;45429;-74
2022/10/27 05:28:05;;;;;;;;;4.25;4.25;;;;;;;;5077118;28;45245;-72
2022/10/27 05:30:30;;;;;;;;;5.00;5.00;;;;;;;;5077860;28;45313;-71
2022/10/27 05:32:56;;;;;;;;;4.00;4.00;;;;;;;;5078199;28;45369;-74
2022/10/27 05:35:21;;;;;;;;;6.25;6.25;;;;;;;;5079812;28;45244;-77
2022/10/27 05:37:46;;;;;;;;;4.50;4.50;;;;;;;;5077442;28;45369;-79
2022/10/27 05:40:12;;;;;;;;;5.00;5.00;;;;;;;;5080762;28;45597;-76
2022/10/27 05:42:37;;;;;;;;;6.25;6.25;;;;;;;;5078497;28;45329;-75
2022/10/27 05:45:02;;;;;;;;;4.00;4.00;;;;;;;;5079233;27;46229;-70
2022/10/27 05:47:27;;;;;;;;;5.00;5.00;;;;;;;;5098353;27;45471;-75
2022/10/27 05:49:52;;;;;;;;;4.25;4.25;;;;;;;;5108534;27;45487;-78
2022/10/27 05:52:18;;;;;;;;;5.50;5.25;;;;;;;;5097434;27;45471;-77
2022/10/27 05:54:43;;;;;;;;;5.50;5.50;;;;;;;;5089990;27;45509;-79
2022/10/27 05:57:08;;;;;;;;;5.00;5.00;;;;;;;;5099826;27;45409;-78
2022/10/27 05:59:33;;;;;;;;;4.50;4.50;;;;;;;;5098435;27;45391;-79
2022/10/27 06:01:59;;;;;;;;;7.00;7.00;;;;;;;;5097072;27;45408;-77
2022/10/27 06:04:24;;;;;;;;;4.25;4.25;;;;;;;;5076395;27;47184;-87
2022/10/27 06:06:49;;;;;;;;;4.00;4.00;;;;;;;;5094467;27;45404;-70
2022/10/27 06:09:14;;;;;;;;;6.00;6.00;;;;;;;;5084694;27;45621;-73
2022/10/27 06:11:39;;;;;;;;;5.75;5.75;;;;;;;;5077800;27;45370;-70
2022/10/27 06:14:04;;;;;;;;;4.75;4.75;;;;;;;;5076811;27;45319;-72
2022/10/27 06:16:30;;;;;;;;;7.75;7.75;;;;;;;;5076529;27;45227;-74
2022/10/27 06:18:55;;;;;;;;;5.00;5.00;;;;;;;;5093150;27;45482;-70
2022/10/27 06:21:21;;;;;;;;;7.00;7.00;;;;;;;;5098736;27;45573;-72
2022/10/27 06:23:46;;;;;;;;;7.00;7.00;;;;;;;;5101567;27;45493;-74
2022/10/27 06:26:12;;;;;;;;;8.00;8.00;;;;;;;;5097763;27;45380;-73
2022/10/27 06:28:37;;;;;;;;;8.00;8.00;;;;;;;;5097688;27;45247;-72
2022/10/27 06:31:03;;;;;;;;;7.75;7.75;;;;;;;;5097959;27;45455;-74
2022/10/27 06:33:28;;;;;;;;;8.00;8.00;;;;;;;;5097383;27;45521;-70
2022/10/27 06:35:53;;;;;;;;;6.75;6.00;;;;;;;;5097419;27;45331;-74
2022/10/27 06:38:19;;;;;;;;;9.00;9.00;;;;;;;;5101104;27;45517;-72
2022/10/27 06:40:44;;;;;;;;;8.75;8.75;;;;;;;;5103852;27;45540;-71
2022/10/27 06:43:10;;;;;;;;;5.50;5.50;;;;;;;;5106032;27;45483;-72
2022/10/27 06:45:36;;;;;;;;;10.25;10.25;;;;;;;;5121881;27;45681;-71
2022/10/27 06:48:02;;;;;;;;;7.00;7.00;;;;;;;;5106209;27;45409;-73
2022/10/27 06:50:27;;;;;;;;;6.50;6.50;;;;;;;;5113305;27;45477;-73
2022/10/27 06:52:52;;;;;;;;;7.75;7.75;;;;;;;;5099381;27;46047;-73
2022/10/27 06:55:18;;;;;;;;;10.00;10.00;;;;;;;;5108000;27;45411;-75
2022/10/27 06:57:43;;;;;;;;;9.00;9.00;;;;;;;;5105357;27;45401;-73
2022/10/27 07:00:09;;;;;;;;;7.75;7.75;;;;;;;;5117749;27;45323;-70
2022/10/27 07:02:35;;;;;;;;;7.00;6.75;;;;;;;;5102491;27;45433;-72
2022/10/27 07:05:00;;;;;;;;;1.25;1.25;;;;;;;;5105343;27;45432;-72
2022/10/27 07:07:25;;;;;;;;;8.00;8.00;;;;;;;;5103561;27;45471;-70
2022/10/27 07:09:50;;;;;;;;;6.00;6.00;;;;;;;;5097348;27;45584;-70
2022/10/27 07:12:16;;;;;;;;;7.25;7.25;;;;;;;;5102353;27;46091;-70
2022/10/27 07:14:41;;;;;;;;;7.00;7.00;;;;;;;;5095207;27;45425;-70
2022/10/27 07:17:06;;;;;;;;;8.00;8.00;;;;;;;;5076006;27;45462;-70
2022/10/27 07:19:31;;;;;;;;;9.25;9.00;;;;;;;;5075937;27;45273;-70
2022/10/27 07:21:56;;;;;;;;;8.50;7.75;;;;;;;;5074118;28;47401;-70
2022/10/27 07:24:21;;;;;;;;;8.75;8.75;;;;;;;;5077549;27;45390;-70
2022/10/27 07:26:47;;;;;;;;;7.25;7.25;;;;;;;;5076602;27;45654;-70
2022/10/27 07:29:12;;;;;;;;;9.25;9.25;;;;;;;;5076233;27;45363;-69
2022/10/27 07:31:37;;;;;;;;;8.75;8.75;;;;;;;;5075407;28;46287;-71
2022/10/27 07:34:02;;;;;;;;;9.75;9.75;;;;;;;;5075524;27;45246;-71
2022/10/27 07:36:28;;;;;;;;;7.00;7.00;;;;;;;;5082905;27;45530;-71
2022/10/27 07:38:53;;;;;;;;;10.75;10.00;;;;;;;;5098863;27;45185;-71
2022/10/27 07:41:18;;;;;;;;;10.50;10.50;;;;;;;;5109010;27;46299;-71
2022/10/27 07:43:44;;;;;;;;;19.00;18.00;;;;;;;;5106504;27;45346;-72
2022/10/27 07:46:09;;;;;;;;;8.50;8.50;;;;;;;;5101597;27;45742;-71
2022/10/27 07:48:35;;;;;;;;;28.25;23.00;;;;;;;;5112216;27;45511;-70
2022/10/27 07:51:00;;;;;;;;;16.75;16.25;;;;;;;;5099213;27;45571;-70
2022/10/27 07:53:25;;;;;;;;;11.25;11.25;;;;;;;;5108006;27;45426;-71
2022/10/27 07:55:51;;;;;;;;;10.00;8.50;;;;;;;;5106665;27;45296;-70
2022/10/27 07:58:16;;;;;;;;;10.75;10.75;;;;;;;;5101137;27;45578;-71
2022/10/27 08:00:43;;;;;;;;;8.50;8.50;;;;;;;;5113463;27;46109;-71
2022/10/27 08:03:18;;;;;;;;;4.75;4.75;;;;;;;;5102719;27;45548;-70
2022/10/27 08:05:44;;;;;;;;;8.00;8.00;;;;;;;;5109806;27;45424;-70
2022/10/27 08:08:09;;;;;;;;;8.25;8.25;;;;;;;;5112515;27;45503;-72
2022/10/27 08:10:36;;;;;;;;;9.00;9.00;;;;;;;;5102399;27;45596;-72
2022/10/27 08:13:02;;;;;;;;;10.75;10.75;;;;;;;;5115754;27;45679;-69
2022/10/27 08:15:27;;;;;;;;;13.50;13.50;;;;;;;;5106788;27;45458;-70
2022/10/27 08:17:54;;;;;;;;;10.50;10.50;;;;;;;;5107173;27;45239;-71
2022/10/27 08:20:20;;;;;;;;;6.00;6.00;;;;;;;;5113598;27;45453;-71
2022/10/27 08:22:45;;;;;;;;;7.75;7.75;;;;;;;;5101137;27;45345;-70
2022/10/27 08:25:10;;;;;;;;;8.75;8.75;;;;;;;;5112962;27;45405;-69
2022/10/27 08:27:35;;;;;;;;;10.75;10.75;;;;;;;;5107564;27;45436;-70
2022/10/27 08:30:00;;;;;;;;;9.25;9.25;;;;;;;;5105443;27;46187;-70
2022/10/27 08:32:26;;;;;;;;;9.00;9.00;;;;;;;;5114639;27;45296;-70
2022/10/27 08:34:51;;;;;;;;;7.25;7.25;;;;;;;;5101807;27;45320;-70
2022/10/27 08:37:16;;;;;;;;;20.00;20.00;;;;;;;;5112019;27;45351;-70
2022/10/27 08:39:41;;;;;;;;;8.75;8.75;;;;;;;;5107761;27;45433;-71
2022/10/27 08:42:06;;;;;;;;;13.50;13.00;;;;;;;;5103056;27;45559;-70
2022/10/27 08:44:51;;;;;;;;;11.75;11.25;;;;;;;;5113584;27;45305;-72
2022/10/27 08:47:21;;;;;;;;;9.00;9.00;;;;;;;;5103863;27;45400;-70
2022/10/27 08:49:50;;;;;;;;;12.25;12.00;;;;;;;;5108935;27;45530;-72
2022/10/27 08:52:15;;;;;;;;;10.00;10.00;;;;;;;;5112265;27;45433;-69
2022/10/27 08:54:43;;;;;;;;;7.00;7.00;;;;;;;;5099547;27;45403;-71
2022/10/27 08:57:11;;;;;;;;;8.50;8.50;;;;;;;;5113149;27;45271;-71
2022/10/27 08:59:36;;;;;;;;;7.00;7.00;;;;;;;;5107776;27;45372;-73
2022/10/27 09:02:20;;;;;;;;;8.25;8.25;;;;;;;;5105180;27;45344;-68
2022/10/27 09:05:04;;;;;;;;;4.00;4.00;;;;;;;;5114466;27;45479;-69
2022/10/27 09:07:41;;;;;;;;;12.50;12.50;;;;;;;;5106492;27;45355;-69
2022/10/27 09:10:32;;;;;;;;;8.75;8.75;;;;;;;;5117847;27;45514;-68
2022/10/27 09:13:00;;;;;;;;;9.00;9.00;;;;;;;;5082945;27;45473;-69
2022/10/27 09:15:25;;;;;;;;;9.00;9.00;;;;;;;;5110367;27;45257;-70
2022/10/27 09:18:09;;;;;;;;;10.50;10.00;;;;;;;;5109941;27;45385;-69
2022/10/27 09:20:46;;;;;;;;;14.00;14.00;;;;;;;;5101402;27;46151;-69
2022/10/27 09:23:18;;;;;;;;;12.50;12.50;;;;;;;;5100735;27;45353;-68
2022/10/27 09:25:45;;;;;;;;;6.75;6.75;;;;;;;;5098736;27;45350;-72
2022/10/27 09:28:15;;;;;;;;;9.00;9.00;;;;;;;;5081160;27;45346;-69
2022/10/27 09:30:42;;;;;;;;;13.50;13.50;;;;;;;;5078993;27;47102;-68
2022/10/27 09:33:11;;;;;;;;;15.50;15.50;;;;;;;;5097792;27;45431;-73
2022/10/27 09:35:36;;;;;;;;;14.50;14.50;;;;;;;;5097393;27;45338;-69
2022/10/27 09:38:04;;;;;;;;;44.75;37.75;;;;;;;;5057905;28;45256;-68
2022/10/27 09:40:31;;;;;;;;;17.50;17.50;;;;;;;;5076386;28;45250;-70
2022/10/27 09:42:56;;;;;;;;;10.25;10.25;;;;;;;;5075788;28;45467;-69
2022/10/27 09:45:25;;;;;;;;;10.50;10.50;;;;;;;;5075986;28;45442;-71
2022/10/27 09:48:05;;;;;;;;;11.25;11.25;;;;;;;;5070280;28;45611;-68
2022/10/27 09:50:44;;;;;;;;;9.50;9.50;;;;;;;;5076654;28;46102;-69
2022/10/27 09:53:28;;;;;;;;;11.75;11.25;;;;;;;;5076599;28;45361;-70
2022/10/27 09:55:53;;;;;;;;;15.25;15.25;;;;;;;;5076950;28;45411;-71
2022/10/27 09:58:19;;;;;;;;;11.75;11.75;;;;;;;;5076902;28;45327;-70
2022/10/27 10:00:53;;;;;;;;;10.75;10.75;;;;;;;;5076449;28;45474;-70
2022/10/27 10:03:20;;;;;;;;;10.75;10.75;;;;;;;;5076616;28;45406;-69
2022/10/27 10:05:46;;;;;;;;;9.75;9.50;;;;;;;;5076810;28;45398;-70
2022/10/27 10:08:13;;;;;;;;;13.25;12.00;;;;;;;;5076977;28;45229;-69
2022/10/27 10:10:39;;;;;;;;;9.25;9.25;;;;;;;;5076002;28;45430;-69
2022/10/27 10:13:06;;;;;;;;;7.50;7.50;;;;;;;;5076268;28;45279;-70
2022/10/27 10:15:40;;;;;;;;;8.25;8.25;;;;;;;;5076982;28;45268;-71
2022/10/27 10:18:20;;;;;;;;;10.00;10.00;;;;;;;;5077345;28;45574;-68
2022/10/27 10:20:45;;;;;;;;;10.75;10.75;;;;;;;;5079400;27;45401;-70
2022/10/27 10:23:10;;;;;;;;;12.25;11.75;;;;;;;;5077678;27;45431;-69
2022/10/27 10:25:41;;;;;;;;;10.25;10.25;;;;;;;;5097674;27;45265;-69
2022/10/27 10:28:06;;;;;;;;;15.25;15.25;;;;;;;;5097625;27;45323;-70
2022/10/27 10:30:33;;;;;;;;;11.00;11.00;;;;;;;;5096748;27;46506;-70
2022/10/27 10:32:59;;;;;;;;;17.75;17.75;;;;;;;;5096442;27;45429;-69
2022/10/27 10:35:43;;;;;;;;;11.00;10.00;;;;;;;;5078770;27;45317;-69
2022/10/27 10:38:23;;;;;;;;;12.25;11.50;;;;;;;;5078591;27;45583;-70
2022/10/27 10:41:07;;;;;;;;;10.50;10.50;;;;;;;;5096510;27;46142;-70
2022/10/27 10:43:33;;;;;;;;;10.75;10.75;;;;;;;;5078279;27;45286;-69
2022/10/27 10:45:58;;;;;;;;;14.75;14.75;;;;;;;;5096903;27;45457;-70
2022/10/27 10:48:23;;;;;;;;;13.75;13.75;;;;;;;;5100166;27;45125;-71
2022/10/27 10:50:49;;;;;;;;;13.00;13.00;;;;;;;;5096708;27;45213;-69
2022/10/27 10:53:20;;;;;;;;;12.50;12.50;;;;;;;;5096486;27;45324;-70
2022/10/27 10:55:46;;;;;;;;;10.25;10.25;;;;;;;;5077879;27;45401;-69
2022/10/27 10:58:14;;;;;;;;;14.00;14.00;;;;;;;;5096325;27;45398;-69
2022/10/27 11:00:53;;;;;;;;;12.75;12.75;;;;;;;;5077609;27;48388;-70
2022/10/27 11:03:20;;;;;;;;;19.00;19.00;;;;;;;;5095968;27;45426;-69
2022/10/27 11:05:51;;;;;;;;;13.50;13.50;;;;;;;;5096617;27;45340;-68
2022/10/27 11:08:26;;;;;;;;;9.75;9.75;;;;;;;;5097397;27;45293;-71
2022/10/27 11:10:54;;;;;;;;;15.00;15.00;;;;;;;;5080167;27;45697;-69
2022/10/27 11:13:26;;;;;;;;;14.25;14.25;;;;;;;;5079205;27;45943;-69
2022/10/27 11:15:57;;;;;;;;;12.25;12.25;;;;;;;;5096763;27;45410;-69
2022/10/27 11:18:29;;;;;;;;;12.75;12.75;;;;;;;;5095874;27;45547;-69
2022/10/27 11:21:03;;;;;;;;;9.00;9.00;;;;;;;;5095558;27;46106;-69
2022/10/27 11:23:31;;;;;;;;;8.50;8.50;;;;;;;;5077133;27;45381;-69
2022/10/27 11:25:58;;;;;;;;;12.75;12.75;;;;;;;;5095703;27;45382;-69
2022/10/27 11:28:29;;;;;;;;;15.25;15.25;;;;;;;;5095975;27;45262;-69
2022/10/27 11:30:57;;;;;;;;;10.00;10.00;;;;;;;;5095692;27;45462;-69
2022/10/27 11:33:25;;;;;;;;;13.75;13.75;;;;;;;;5077389;27;45762;-70
2022/10/27 11:36:01;;;;;;;;;10.75;10.75;;;;;;;;5097842;27;45466;-69
2022/10/27 11:38:26;;;;;;;;;11.75;10.25;;;;;;;;5099638;27;45418;-70
2022/10/27 11:40:51;;;;;;;;;25.50;25.25;;;;;;;;5099524;27;46250;-70
2022/10/27 11:43:19;;;;;;;;;74.00;70.00;;;;;;;;5100717;27;45334;-69
2022/10/27 11:45:50;;;;;;;;;14.00;14.00;;;;;;;;5099455;27;45300;-69
2022/10/27 11:48:22;;;;;;;;;11.75;11.75;;;;;;;;5099728;27;45390;-69
2022/10/27 11:51:01;;;;;;;;;17.00;16.75;;;;;;;;5098976;27;45382;-69
2022/10/27 11:53:26;;;;;;;;;11.25;11.25;;;;;;;;5100247;27;45413;-70
2022/10/27 11:56:09;;;;;;;;;15.00;15.00;;;;;;;;5081007;27;45396;-69
2022/10/27 11:59:00;;;;;;;;;10.75;10.75;;;;;;;;5098711;27;45255;-70
2022/10/27 12:01:40;;;;;;;;;17.00;17.00;;;;;;;;5079709;27;47732;-70
2022/10/27 12:04:11;;;;;;;;;14.00;14.00;;;;;;;;5098773;27;45408;-69
2022/10/27 12:06:39;;;;;;;;;21.50;21.50;;;;;;;;5099247;27;45197;-68
2022/10/27 12:09:10;;;;;;;;;12.50;12.50;;;;;;;;5099257;27;45165;-70
2022/10/27 12:11:41;;;;;;;;;11.00;10.75;;;;;;;;5098673;27;46003;-71
2022/10/27 12:14:10;;;;;;;;;11.00;9.00;;;;;;;;5080248;27;45418;-69
2022/10/27 12:16:44;;;;;;;;;9.00;9.00;;;;;;;;5098667;27;45390;-69
2022/10/27 12:19:29;;;;;;;;;8.50;8.50;;;;;;;;5099221;27;45263;-70
2022/10/27 12:21:54;;;;;;;;;10.00;9.25;;;;;;;;5098076;27;46188;-69
2022/10/27 12:24:19;;;;;;;;;11.00;11.00;;;;;;;;5079637;27;45478;-69
2022/10/27 12:26:53;;;;;;;;;12.75;12.75;;;;;;;;5098174;27;45260;-70
2022/10/27 12:29:20;;;;;;;;;11.25;11.25;;;;;;;;5099278;27;45340;-69
2022/10/27 12:31:50;;;;;;;;;17.75;17.50;;;;;;;;5080151;27;47748;-69
2022/10/27 12:34:16;;;;;;;;;11.25;11.25;;;;;;;;5098752;27;45437;-70
2022/10/27 12:36:41;;;;;;;;;12.25;11.25;;;;;;;;5098262;27;45434;-70
2022/10/27 12:39:09;;;;;;;;;8.75;8.00;;;;;;;;5099903;27;45488;-70
2022/10/27 12:41:45;;;;;;;;;13.50;12.50;;;;;;;;5098994;27;45378;-70
2022/10/27 12:44:14;;;;;;;;;10.75;10.75;;;;;;;;5098002;27;45232;-70
2022/10/27 12:46:47;;;;;;;;;8.75;8.75;;;;;;;;5079291;27;45386;-68
2022/10/27 12:49:27;;;;;;;;;7.50;7.50;;;;;;;;5098113;27;45248;-68
2022/10/27 12:51:52;;;;;;;;;8.75;8.75;;;;;;;;5097779;27;46218;-69
2022/10/27 12:54:29;;;;;;;;;11.00;10.25;;;;;;;;5100114;27;45613;-69
2022/10/27 12:56:55;;;;;;;;;10.50;10.00;;;;;;;;5099275;27;45314;-70
2022/10/27 12:59:29;;;;;;;;;12.75;12.00;;;;;;;;5098071;27;45340;-70
2022/10/27 13:02:01;;;;;;;;;8.00;8.00;;;;;;;;5097904;27;45565;-69
2022/10/27 13:04:41;;;;;;;;;6.50;6.50;;;;;;;;5097984;27;45839;-69
2022/10/27 13:07:07;;;;;;;;;8.75;8.75;;;;;;;;5101391;27;45269;-73
2022/10/27 13:09:39;;;;;;;;;8.25;8.25;;;;;;;;5085525;27;45241;-73
2022/10/27 13:12:09;;;;;;;;;8.25;8.25;;;;;;;;5094927;27;46512;-72
2022/10/27 13:14:52;;;;;;;;;12.50;11.50;;;;;;;;5097168;27;45338;-72
2022/10/27 13:17:29;;;;;;;;;6.25;6.25;;;;;;;;5092374;27;45498;-72
2022/10/27 13:19:54;;;;;;;;;9.75;9.75;;;;;;;;5087275;27;45563;-70
2022/10/27 13:22:23;;;;;;;;;8.00;8.00;;;;;;;;5113739;27;45294;-73
2022/10/27 13:24:57;;;;;;;;;6.75;6.75;;;;;;;;5100713;27;45325;-70
2022/10/27 13:27:27;;;;;;;;;7.00;7.00;;;;;;;;5086095;27;45453;-72
2022/10/27 13:30:00;;;;;;;;;9.00;9.00;;;;;;;;5108958;27;45507;-72
2022/10/27 13:32:27;;;;;;;;;10.75;10.75;;;;;;;;5110219;27;45381;-73
2022/10/27 13:34:58;;;;;;;;;8.75;8.75;;;;;;;;5100325;27;45400;-72
2022/10/27 13:37:48;;;;;;;;;13.75;13.75;;;;;;;;5112537;27;45846;-72
2022/10/27 13:40:16;;;;;;;;;12.50;12.50;;;;;;;;5111906;27;45331;-71
2022/10/27 13:42:41;;;;;;;;;8.75;8.75;;;;;;;;5100469;27;48283;-74
2022/10/27 13:45:25;;;;;;;;;10.25;10.25;;;;;;;;5114755;27;45480;-73
2022/10/27 13:48:06;;;;;;;;;7.25;7.25;;;;;;;;5105806;27;45309;-73
2022/10/27 13:50:35;;;;;;;;;10.75;10.75;;;;;;;;5102495;27;45496;-72
2022/10/27 13:53:15;;;;;;;;;8.50;8.50;;;;;;;;5112940;27;45505;-71
2022/10/27 13:55:46;;;;;;;;;10.75;10.75;;;;;;;;5104013;27;45435;-72
2022/10/27 13:58:17;;;;;;;;;7.50;7.25;;;;;;;;5104761;27;45330;-73
2022/10/27 14:01:03;;;;;;;;;7.75;7.75;;;;;;;;5111845;27;45344;-71
2022/10/27 14:03:34;;;;;;;;;8.50;8.50;;;;;;;;5087307;27;46137;-71
2022/10/27 14:06:00;;;;;;;;;8.25;7.50;;;;;;;;5107810;27;45432;-74
2022/10/27 14:08:26;;;;;;;;;11.50;11.50;;;;;;;;5111701;27;45389;-75
2022/10/27 14:10:53;;;;;;;;;8.50;8.50;;;;;;;;5100328;27;45319;-74
2022/10/27 14:13:26;;;;;;;;;10.75;10.75;;;;;;;;5113236;27;45327;-73
2022/10/27 14:15:56;;;;;;;;;12.00;11.50;;;;;;;;5105140;27;45287;-75
2022/10/27 14:18:32;;;;;;;;;11.50;11.50;;;;;;;;5103639;27;45308;-73
2022/10/27 14:21:01;;;;;;;;;12.25;12.25;;;;;;;;5113409;27;45502;-74
2022/10/27 14:23:26;;;;;;;;;12.75;12.75;;;;;;;;5099823;27;45434;-73
2022/10/27 14:25:51;;;;;;;;;8.50;8.50;;;;;;;;5105243;27;45680;-75
2022/10/27 14:28:20;;;;;;;;;9.00;9.00;;;;;;;;5108751;27;45357;-73
2022/10/27 14:30:47;;;;;;;;;8.25;8.25;;;;;;;;5100346;27;45502;-74
2022/10/27 14:33:21;;;;;;;;;8.00;8.00;;;;;;;;5113987;27;45357;-72
2022/10/27 14:35:46;;;;;;;;;10.00;10.00;;;;;;;;5105718;27;45403;-76
2022/10/27 14:38:16;;;;;;;;;14.75;14.75;;;;;;;;5105075;27;45424;-70
2022/10/27 14:40:41;;;;;;;;;12.75;12.75;;;;;;;;5111369;27;45458;-72
2022/10/27 14:43:19;;;;;;;;;11.00;11.00;;;;;;;;5097974;27;46190;-74